createdAt,value
2017-11-15T00:00:55.885Z,90.67
2017-11-15T00:01:58.363Z,90.76
2017-11-15T00:03:00.959Z,90.88
2017-11-15T00:04:03.741Z,90.62
2017-11-15T00:05:06.282Z,90.73
2017-11-15T00:06:09.036Z,90.88
2017-11-15T00:07:11.549Z,90.75
2017-11-15T00:08:13.963Z,90.67
2017-11-15T00:09:16.470Z,90.57
2017-11-15T00:10:18.943Z,90.43
2017-11-15T00:11:21.454Z,90.36
2017-11-15T00:12:24.317Z,90.77
2017-11-15T00:13:26.887Z,90.87
2017-11-15T00:14:29.438Z,90.77
2017-11-15T00:15:31.974Z,90.96
2017-11-15T00:16:34.513Z,91.00
2017-11-15T00:17:37.097Z,90.93
2017-11-15T00:18:39.931Z,90.90
2017-11-15T00:19:42.515Z,90.84
2017-11-15T00:20:45.036Z,91.06
2017-11-15T00:21:47.613Z,90.92
2017-11-15T00:22:50.145Z,90.93
2017-11-15T00:23:52.814Z,90.86
2017-11-15T00:24:55.635Z,90.87
2017-11-15T00:25:59.176Z,90.93
2017-11-15T00:27:01.706Z,90.69
2017-11-15T00:28:04.259Z,90.66
2017-11-15T00:29:06.853Z,90.76
2017-11-15T00:30:09.386Z,90.76
2017-11-15T00:31:11.923Z,90.95
2017-11-15T00:32:14.476Z,90.95
2017-11-15T00:33:17.142Z,91.09
2017-11-15T00:34:19.717Z,90.92
2017-11-15T00:35:22.321Z,90.86
2017-11-15T00:36:25.174Z,90.68
2017-11-15T00:37:27.778Z,90.78
2017-11-15T00:38:30.408Z,90.74
2017-11-15T00:39:32.942Z,90.86
2017-11-15T00:40:35.507Z,90.94
2017-11-15T00:41:38.043Z,90.94
2017-11-15T00:42:40.608Z,90.77
2017-11-15T00:43:43.113Z,90.84
2017-11-15T00:44:45.651Z,90.90
2017-11-15T00:45:48.299Z,91.01
2017-11-15T00:46:50.875Z,90.80
2017-11-15T00:47:53.815Z,90.69
2017-11-15T00:48:56.350Z,90.69
2017-11-15T00:49:58.934Z,90.73
2017-11-15T00:51:01.496Z,90.86
2017-11-15T00:52:04.048Z,90.57
2017-11-15T00:53:06.577Z,90.75
2017-11-15T00:54:09.736Z,90.74
2017-11-15T00:55:12.341Z,90.78
2017-11-15T00:56:14.915Z,90.93
2017-11-15T00:57:17.479Z,90.98
2017-11-15T00:58:20.566Z,90.91
2017-11-15T00:59:23.126Z,90.87
2017-11-15T01:00:25.935Z,90.83
2017-11-15T01:01:28.489Z,90.73
2017-11-15T01:02:31.066Z,90.58
2017-11-15T01:03:33.687Z,90.52
2017-11-15T01:04:36.249Z,90.36
2017-11-15T01:05:38.784Z,90.58
2017-11-15T01:06:41.619Z,90.86
2017-11-15T01:07:44.201Z,90.87
2017-11-15T01:08:46.722Z,90.99
2017-11-15T01:09:49.244Z,90.92
2017-11-15T01:10:51.718Z,90.83
2017-11-15T01:11:54.185Z,90.88
2017-11-15T01:12:56.951Z,90.79
2017-11-15T01:13:59.528Z,90.69
2017-11-15T01:15:02.010Z,90.39
2017-11-15T01:16:04.557Z,90.36
2017-11-15T01:17:07.107Z,90.37
2017-11-15T01:18:09.669Z,90.28
2017-11-15T01:19:12.552Z,90.26
2017-11-15T01:20:15.082Z,90.31
2017-11-15T01:21:17.648Z,90.27
2017-11-15T01:22:20.173Z,90.28
2017-11-15T01:23:22.748Z,90.22
2017-11-15T01:24:25.348Z,90.30
2017-11-15T01:25:28.178Z,90.41
2017-11-15T01:26:30.702Z,90.64
2017-11-15T01:27:33.253Z,90.72
2017-11-15T01:28:35.809Z,90.79
2017-11-15T01:29:38.357Z,90.77
2017-11-15T01:30:40.899Z,90.81
2017-11-15T01:31:43.461Z,90.73
2017-11-15T01:32:45.986Z,90.71
2017-11-15T01:33:48.495Z,90.73
2017-11-15T01:34:51.071Z,90.81
2017-11-15T01:35:53.608Z,90.71
2017-11-15T01:36:56.154Z,90.73
2017-11-15T01:37:59.010Z,90.65
2017-11-15T01:39:01.546Z,90.53
2017-11-15T01:40:04.752Z,90.50
2017-11-15T01:41:07.289Z,90.40
2017-11-15T01:42:11.194Z,90.21
2017-11-15T01:43:13.740Z,90.15
2017-11-15T01:44:16.675Z,90.12
2017-11-15T01:45:19.212Z,90.14
2017-11-15T01:46:21.842Z,90.02
2017-11-15T01:47:24.452Z,89.96
2017-11-15T01:48:27.069Z,89.71
2017-11-15T01:49:29.646Z,89.74
2017-11-15T01:50:32.514Z,89.58
2017-11-15T01:51:35.061Z,89.80
2017-11-15T01:52:37.592Z,89.58
2017-11-15T01:53:40.172Z,89.46
2017-11-15T01:54:42.706Z,89.74
2017-11-15T01:55:45.261Z,89.86
2017-11-15T01:56:48.167Z,89.86
2017-11-15T01:57:50.702Z,89.82
2017-11-15T01:58:53.370Z,89.80
2017-11-15T01:59:56.061Z,89.88
2017-11-15T02:00:58.619Z,90.05
2017-11-15T02:02:01.143Z,90.12
2017-11-15T02:03:03.998Z,90.06
2017-11-15T02:04:06.520Z,90.26
2017-11-15T02:05:09.025Z,90.29
2017-11-15T02:06:11.611Z,90.65
2017-11-15T02:07:14.173Z,90.68
2017-11-15T02:08:16.754Z,90.81
2017-11-15T02:09:19.623Z,90.90
2017-11-15T02:10:22.246Z,90.81
2017-11-15T02:11:24.812Z,90.77
2017-11-15T02:12:27.341Z,90.69
2017-11-15T02:13:29.895Z,90.63
2017-11-15T02:14:32.442Z,90.57
2017-11-15T02:15:35.378Z,90.55
2017-11-15T02:16:37.881Z,90.58
2017-11-15T02:17:40.332Z,90.62
2017-11-15T02:18:42.919Z,90.71
2017-11-15T02:19:45.501Z,90.71
2017-11-15T02:20:48.086Z,90.72
2017-11-15T02:21:51.007Z,90.75
2017-11-15T02:22:53.518Z,90.74
2017-11-15T02:23:56.046Z,90.73
2017-11-15T02:24:58.619Z,90.77
2017-11-15T02:26:01.128Z,90.79
2017-11-15T02:27:03.647Z,90.87
2017-11-15T02:28:06.421Z,91.06
2017-11-15T02:29:08.920Z,91.13
2017-11-15T02:30:11.464Z,91.33
2017-11-15T02:31:13.959Z,91.78
2017-11-15T02:32:16.547Z,92.21
2017-11-15T02:33:19.340Z,92.42
2017-11-15T02:34:22.296Z,92.74
2017-11-15T02:35:24.971Z,92.78
2017-11-15T02:36:27.856Z,93.13
2017-11-15T02:37:30.461Z,93.33
2017-11-15T02:38:32.974Z,93.54
2017-11-15T02:39:35.695Z,93.51
2017-11-15T02:40:38.912Z,93.52
2017-11-15T02:41:41.477Z,93.34
2017-11-15T02:42:44.042Z,93.49
2017-11-15T02:43:46.609Z,93.67
2017-11-15T02:44:49.159Z,93.69
2017-11-15T02:45:51.716Z,93.65
2017-11-15T02:46:54.584Z,93.54
2017-11-15T02:47:57.131Z,93.56
2017-11-15T02:48:59.691Z,93.63
2017-11-15T02:50:02.255Z,93.69
2017-11-15T02:51:04.791Z,93.61
2017-11-15T02:52:07.288Z,93.54
2017-11-15T02:53:10.151Z,93.61
2017-11-15T02:54:12.656Z,93.52
2017-11-15T02:55:15.156Z,93.50
2017-11-15T02:56:17.728Z,93.41
2017-11-15T02:59:48.641Z,93.53
2017-11-15T03:00:51.415Z,93.38
2017-11-15T03:01:54.310Z,93.31
2017-11-15T03:02:56.871Z,93.46
2017-11-15T03:03:59.443Z,93.53
2017-11-15T03:05:02.282Z,93.44
2017-11-15T03:06:04.856Z,93.46
2017-11-15T03:07:07.420Z,93.38
2017-11-15T03:08:09.971Z,93.38
2017-11-15T03:09:12.528Z,93.62
2017-11-15T03:10:15.095Z,93.72
2017-11-15T03:11:17.998Z,94.05
2017-11-15T03:12:20.753Z,94.07
2017-11-15T03:13:23.276Z,94.07
2017-11-15T03:14:27.211Z,94.12
2017-11-15T03:15:29.855Z,93.95
2017-11-15T03:16:32.513Z,93.97
2017-11-15T03:17:35.548Z,94.04
2017-11-15T03:18:38.103Z,94.02
2017-11-15T03:19:40.673Z,93.93
2017-11-15T03:20:43.256Z,93.86
2017-11-15T03:21:45.828Z,93.82
2017-11-15T03:22:48.401Z,93.93
2017-11-15T03:23:51.370Z,94.00
2017-11-15T03:24:54.040Z,93.97
2017-11-15T03:25:56.578Z,94.03
2017-11-15T03:26:59.135Z,94.02
2017-11-15T03:28:01.684Z,94.02
2017-11-15T03:29:04.270Z,94.00
2017-11-15T03:30:07.112Z,94.00
2017-11-15T03:31:09.715Z,93.87
2017-11-15T03:32:12.263Z,93.78
2017-11-15T03:33:14.827Z,93.70
2017-11-15T03:34:17.405Z,93.64
2017-11-15T03:35:20.025Z,93.57
2017-11-15T03:36:22.914Z,93.57
2017-11-15T03:37:25.513Z,93.54
2017-11-15T03:38:28.071Z,93.48
2017-11-15T03:39:30.616Z,93.49
2017-11-15T03:40:33.276Z,93.46
2017-11-15T03:41:35.844Z,93.40
2017-11-15T03:42:38.799Z,93.38
2017-11-15T03:43:41.391Z,93.35
2017-11-15T03:44:43.984Z,93.29
2017-11-15T03:45:46.575Z,93.29
2017-11-15T03:46:49.166Z,93.30
2017-11-15T03:47:51.747Z,93.35
2017-11-15T03:48:54.629Z,93.39
2017-11-15T03:49:57.243Z,93.59
2017-11-15T03:50:59.843Z,93.62
2017-11-15T03:52:02.425Z,93.53
2017-11-15T03:53:04.999Z,93.68
2017-11-15T03:54:07.595Z,93.61
2017-11-15T03:55:10.429Z,93.57
2017-11-15T03:56:12.995Z,93.50
2017-11-15T03:57:15.471Z,93.52
2017-11-15T03:58:17.948Z,93.50
2017-11-15T03:59:20.537Z,93.46
2017-11-15T04:00:23.758Z,93.51
2017-11-15T04:01:26.329Z,93.46
2017-11-15T04:02:28.933Z,93.43
2017-11-15T04:03:31.518Z,93.52
2017-11-15T04:04:34.012Z,93.47
2017-11-15T04:05:36.529Z,93.40
2017-11-15T04:06:39.328Z,93.35
2017-11-15T04:07:41.804Z,93.25
2017-11-15T04:08:44.408Z,93.21
2017-11-15T04:09:46.954Z,93.21
2017-11-15T04:10:49.573Z,93.15
2017-11-15T04:11:52.148Z,93.07
2017-11-15T04:12:55.000Z,93.03
2017-11-15T04:13:57.602Z,93.05
2017-11-15T04:15:00.165Z,92.98
2017-11-15T04:16:02.747Z,93.00
2017-11-15T04:17:05.420Z,92.94
2017-11-15T04:18:07.919Z,92.93
2017-11-15T04:19:10.685Z,92.93
2017-11-15T04:20:13.124Z,92.86
2017-11-15T04:21:15.533Z,92.82
2017-11-15T04:22:17.959Z,92.84
2017-11-15T04:23:20.444Z,92.86
2017-11-15T04:24:22.986Z,92.84
2017-11-15T04:25:25.999Z,92.71
2017-11-15T04:26:28.647Z,92.69
2017-11-15T04:27:31.221Z,92.65
2017-11-15T04:28:33.796Z,92.91
2017-11-15T04:29:36.441Z,93.11
2017-11-15T04:30:39.000Z,93.25
2017-11-15T04:31:41.590Z,93.41
2017-11-15T04:32:44.145Z,93.57
2017-11-15T04:33:46.752Z,93.71
2017-11-15T04:34:49.483Z,94.05
2017-11-15T04:35:52.059Z,94.15
2017-11-15T04:36:55.002Z,94.17
2017-11-15T04:37:57.635Z,94.31
2017-11-15T04:39:00.243Z,94.22
2017-11-15T04:40:02.850Z,94.16
2017-11-15T04:41:05.443Z,94.08
2017-11-15T04:42:08.050Z,94.06
2017-11-15T04:43:10.640Z,93.97
2017-11-15T04:44:13.369Z,93.91
2017-11-15T04:45:16.099Z,93.89
2017-11-15T04:46:18.648Z,93.86
2017-11-15T04:47:21.359Z,93.77
2017-11-15T04:48:23.955Z,93.75
2017-11-15T04:49:26.646Z,93.74
2017-11-15T04:50:29.240Z,93.65
2017-11-15T04:51:31.813Z,93.49
2017-11-15T04:52:34.446Z,93.29
2017-11-15T04:53:37.029Z,100.00
2017-11-15T04:54:39.698Z,100.00
2017-11-15T04:55:42.276Z,100.00
2017-11-15T04:56:44.842Z,100.00
2017-11-15T04:57:47.427Z,100.00
2017-11-15T04:58:50.307Z,100.00
2017-11-15T04:59:52.973Z,100.00
2017-11-15T05:00:55.619Z,100.00
2017-11-15T05:01:58.208Z,100.00
2017-11-15T05:03:00.791Z,100.00
2017-11-15T05:04:03.437Z,100.00
2017-11-15T05:05:06.384Z,100.00
2017-11-15T05:06:09.007Z,100.00
2017-11-15T05:07:11.627Z,100.00
2017-11-15T05:08:14.253Z,100.00
2017-11-15T05:09:16.880Z,100.00
2017-11-15T05:10:19.486Z,100.00
2017-11-15T05:11:22.408Z,100.00
2017-11-15T05:12:25.018Z,100.00
2017-11-15T05:13:27.648Z,100.00
2017-11-15T05:14:30.249Z,100.00
2017-11-15T05:15:32.857Z,100.00
2017-11-15T05:16:35.500Z,100.00
2017-11-15T05:17:38.438Z,100.00
2017-11-15T05:18:41.026Z,100.00
2017-11-15T05:19:43.674Z,100.00
2017-11-15T05:20:46.281Z,100.00
2017-11-15T05:21:48.892Z,100.00
2017-11-15T05:22:51.486Z,100.00
2017-11-15T05:23:54.524Z,100.00
2017-11-15T05:24:57.119Z,100.00
2017-11-15T05:25:59.723Z,100.00
2017-11-15T05:27:02.334Z,100.00
2017-11-15T05:28:04.974Z,100.00
2017-11-15T05:29:07.623Z,100.00
2017-11-15T05:30:10.543Z,100.00
2017-11-15T05:31:13.123Z,100.00
2017-11-15T05:32:15.727Z,100.00
2017-11-15T05:33:18.332Z,100.00
2017-11-15T05:34:20.930Z,100.00
2017-11-15T05:35:23.581Z,100.00
2017-11-15T05:36:26.463Z,100.00
2017-11-15T05:37:29.085Z,100.00
2017-11-15T05:38:31.695Z,100.00
2017-11-15T05:39:34.407Z,100.00
2017-11-15T05:40:36.992Z,100.00
2017-11-15T05:41:39.628Z,100.00
2017-11-15T05:42:42.481Z,100.00
2017-11-15T05:43:45.068Z,100.00
2017-11-15T05:44:47.556Z,100.00
2017-11-15T05:45:50.078Z,100.00
2017-11-15T05:46:52.522Z,100.00
2017-11-15T05:47:55.021Z,100.00
2017-11-15T05:48:57.999Z,100.00
2017-11-15T05:50:00.617Z,100.00
2017-11-15T05:51:03.213Z,100.00
2017-11-15T05:52:05.879Z,100.00
2017-11-15T05:53:08.481Z,100.00
2017-11-15T05:54:11.091Z,100.00
2017-11-15T05:55:14.020Z,100.00
2017-11-15T05:56:16.651Z,100.00
2017-11-15T05:57:19.282Z,100.00
2017-11-15T05:58:21.850Z,100.00
2017-11-15T10:11:23.726Z,100.00
2017-11-15T10:12:26.692Z,100.00
2017-11-15T10:13:29.897Z,100.00
2017-11-15T10:14:32.609Z,100.00
2017-11-15T10:15:35.831Z,100.00
2017-11-15T10:16:41.513Z,100.00
2017-11-15T10:17:44.262Z,100.00
2017-11-15T10:18:46.940Z,100.00
2017-11-15T10:19:49.655Z,100.00
2017-11-15T10:20:52.326Z,100.00
2017-11-15T10:21:54.984Z,100.00
2017-11-15T10:22:57.751Z,100.00
2017-11-15T10:24:00.531Z,100.00
2017-11-15T10:25:03.500Z,100.00
2017-11-15T10:26:06.198Z,100.00
2017-11-15T10:27:08.839Z,100.00
2017-11-15T10:28:13.306Z,100.00
2017-11-15T10:29:16.068Z,100.00
2017-11-15T10:30:18.769Z,100.00
2017-11-15T10:31:21.914Z,84.78
2017-11-15T10:32:24.747Z,100.00
2017-11-15T10:33:27.404Z,84.21
2017-11-15T10:34:30.101Z,100.00
2017-11-15T10:35:32.817Z,100.00
2017-11-15T10:36:35.501Z,100.00
2017-11-15T10:37:38.669Z,100.00
2017-11-15T10:38:41.392Z,100.00
2017-11-15T10:39:44.081Z,100.00
2017-11-15T10:40:47.146Z,100.00
2017-11-15T10:41:49.881Z,100.00
2017-11-15T10:42:52.670Z,100.00
2017-11-15T10:43:55.648Z,100.00
2017-11-15T10:44:58.323Z,100.00
2017-11-15T10:46:01.031Z,85.90
2017-11-15T10:47:03.761Z,100.00
2017-11-15T10:48:09.295Z,100.00
2017-11-15T10:49:12.050Z,100.00
2017-11-15T10:50:15.135Z,100.00
2017-11-15T10:51:17.892Z,84.63
2017-11-15T10:52:20.665Z,100.00
2017-11-15T10:53:23.400Z,83.12
2017-11-15T10:54:26.235Z,81.69
2017-11-15T10:55:29.810Z,81.97
2017-11-15T10:56:32.887Z,82.60
2017-11-15T10:57:35.578Z,82.60
2017-11-15T10:58:38.324Z,83.08
2017-11-15T10:59:41.086Z,82.77
2017-11-15T11:00:43.974Z,82.20
2017-11-15T11:01:46.805Z,82.10
2017-11-15T11:02:49.537Z,82.67
2017-11-15T11:03:52.194Z,100.00
2017-11-15T11:04:54.892Z,100.00
2017-11-15T11:05:57.693Z,100.00
2017-11-15T11:07:00.276Z,61.10
2017-11-15T11:08:03.027Z,80.84
2017-11-15T11:09:05.728Z,81.27
2017-11-15T11:10:08.418Z,100.00
2017-11-15T11:11:11.555Z,100.00
2017-11-15T11:12:14.194Z,80.87
2017-11-15T11:13:16.879Z,100.00
2017-11-15T11:14:19.600Z,81.00
2017-11-15T11:15:22.313Z,80.63
2017-11-15T11:16:25.002Z,100.00
2017-11-15T11:17:29.500Z,82.12
2017-11-15T11:18:32.255Z,82.73
2017-11-15T11:19:35.336Z,100.00
2017-11-15T11:20:38.063Z,83.74
2017-11-15T11:21:40.732Z,83.34
2017-11-15T11:22:43.474Z,81.95
2017-11-15T11:23:46.227Z,100.00
2017-11-15T11:24:48.935Z,82.52
2017-11-15T11:25:51.999Z,82.07
2017-11-15T11:26:54.674Z,81.97
2017-11-15T11:27:57.366Z,82.32
2017-11-15T11:29:00.051Z,82.20
2017-11-15T11:30:02.757Z,81.42
2017-11-15T11:31:05.593Z,81.99
2017-11-15T11:32:08.558Z,82.38
2017-11-15T11:33:11.776Z,83.20
2017-11-15T11:34:14.539Z,100.00
2017-11-15T11:35:24.397Z,83.30
2017-11-15T11:36:27.242Z,83.11
2017-11-15T11:37:30.147Z,83.06
2017-11-15T11:38:35.796Z,100.00
2017-11-15T11:39:38.484Z,82.62
2017-11-15T11:40:41.230Z,83.08
2017-11-15T11:41:43.907Z,83.27
2017-11-15T11:43:48.914Z,100.00
2017-11-15T11:44:51.920Z,100.00
2017-11-15T11:45:54.623Z,100.00
2017-11-15T11:46:57.273Z,83.47
2017-11-15T11:47:59.900Z,100.00
2017-11-15T11:49:02.544Z,100.00
2017-11-15T11:50:05.176Z,84.26
2017-11-15T11:51:07.887Z,84.21
2017-11-15T11:52:10.539Z,84.14
2017-11-15T11:53:13.215Z,83.50
2017-11-15T11:54:15.896Z,83.29
2017-11-15T11:55:18.778Z,83.16
2017-11-15T11:56:21.949Z,100.00
2017-11-15T11:57:24.670Z,100.00
2017-11-15T11:58:27.338Z,82.97
2017-11-15T11:59:30.493Z,83.12
2017-11-15T12:00:34.007Z,83.16
2017-11-15T12:01:36.730Z,83.14
2017-11-15T12:02:39.795Z,100.00
2017-11-15T12:03:42.478Z,82.85
2017-11-15T12:04:45.079Z,82.52
2017-11-15T12:05:47.944Z,100.00
2017-11-15T12:06:50.683Z,81.52
2017-11-15T12:07:53.335Z,81.63
2017-11-15T12:08:56.441Z,100.00
2017-11-15T12:09:59.208Z,100.00
2017-11-15T12:11:01.887Z,100.00
2017-11-15T12:12:05.441Z,100.00
2017-11-15T12:13:08.458Z,100.00
2017-11-15T12:14:11.124Z,100.00
2017-11-15T12:15:14.267Z,100.00
2017-11-15T12:16:16.994Z,80.78
2017-11-15T12:17:19.757Z,100.00
2017-11-15T12:18:22.533Z,100.00
2017-11-15T12:19:25.285Z,100.00
2017-11-15T12:20:28.266Z,100.00
2017-11-15T12:21:31.048Z,80.99
2017-11-15T12:22:33.796Z,100.00
2017-11-15T12:23:36.607Z,100.00
2017-11-15T12:24:39.311Z,100.00
2017-11-15T12:25:42.034Z,100.00
2017-11-15T12:26:45.159Z,100.00
2017-11-15T12:27:47.850Z,100.00
2017-11-15T12:28:50.549Z,100.00
2017-11-15T12:29:53.287Z,100.00
2017-11-15T12:30:55.983Z,100.00
2017-11-15T12:31:58.746Z,100.00
2017-11-15T12:33:01.510Z,100.00
2017-11-15T12:34:04.309Z,100.00
2017-11-15T12:35:07.074Z,100.00
2017-11-15T12:36:09.939Z,100.00
2017-11-15T12:37:12.667Z,100.00
2017-11-15T12:38:15.511Z,100.00
2017-11-15T12:39:18.224Z,100.00
2017-11-15T12:40:20.968Z,100.00
2017-11-15T12:41:24.289Z,100.00
2017-11-15T12:42:27.038Z,100.00
2017-11-15T12:43:29.774Z,100.00
2017-11-15T12:44:33.355Z,100.00
2017-11-15T12:45:36.108Z,100.00
2017-11-15T12:46:38.847Z,100.00
2017-11-15T12:47:41.873Z,100.00
2017-11-15T12:48:44.509Z,100.00
2017-11-15T12:49:47.139Z,100.00
2017-11-15T12:50:50.279Z,100.00
2017-11-15T12:51:52.995Z,100.00
2017-11-15T12:52:55.730Z,100.00
2017-11-15T12:53:58.741Z,100.00
2017-11-15T12:55:01.430Z,100.00
2017-11-15T12:56:04.190Z,100.00
2017-11-15T12:57:07.436Z,100.00
2017-11-15T12:58:10.064Z,100.00
2017-11-15T12:59:12.707Z,100.00
2017-11-15T13:00:15.413Z,100.00
2017-11-15T13:01:18.087Z,100.00
2017-11-15T13:02:20.761Z,100.00
2017-11-15T13:03:23.507Z,100.00
2017-11-15T13:04:26.243Z,100.00
2017-11-15T13:05:29.786Z,100.00
2017-11-15T13:06:32.531Z,100.00
2017-11-15T13:07:35.676Z,100.00
2017-11-15T13:08:39.747Z,100.00
2017-11-15T13:09:42.463Z,100.00
2017-11-15T13:10:45.192Z,100.00
2017-11-15T13:11:47.922Z,100.00
2017-11-15T13:12:51.285Z,100.00
2017-11-15T13:13:54.078Z,100.00
2017-11-15T13:14:56.853Z,100.00
2017-11-15T13:15:59.640Z,100.00
2017-11-15T13:17:02.511Z,100.00
2017-11-15T13:18:05.244Z,100.00
2017-11-15T13:19:08.313Z,100.00
2017-11-15T13:20:11.153Z,100.00
2017-11-15T13:21:13.914Z,100.00
2017-11-15T13:22:16.691Z,100.00
2017-11-15T13:23:19.409Z,100.00
2017-11-15T13:24:22.163Z,100.00
2017-11-15T13:25:25.304Z,100.00
2017-11-15T13:26:28.085Z,82.30
2017-11-15T13:27:30.796Z,82.62
2017-11-15T13:28:33.476Z,100.00
2017-11-15T13:29:38.725Z,100.00
2017-11-15T13:30:41.636Z,100.00
2017-11-15T13:31:44.909Z,100.00
2017-11-15T13:32:47.867Z,100.00
2017-11-15T13:33:50.557Z,100.00
2017-11-15T13:34:53.268Z,100.00
2017-11-15T13:35:56.028Z,100.00
2017-11-15T13:36:59.005Z,100.00
2017-11-15T13:38:02.255Z,100.00
2017-11-15T13:39:05.012Z,100.00
2017-11-15T13:40:07.674Z,100.00
2017-11-15T13:41:10.513Z,100.00
2017-11-15T13:42:13.209Z,100.00
2017-11-15T13:43:15.893Z,100.00
2017-11-15T13:44:19.079Z,100.00
2017-11-15T13:45:21.760Z,100.00
2017-11-15T13:46:24.520Z,100.00
2017-11-15T13:47:27.193Z,100.00
2017-11-15T13:48:30.020Z,100.00
2017-11-15T13:49:32.787Z,100.00
2017-11-15T13:50:35.882Z,100.00
2017-11-15T13:51:38.536Z,100.00
2017-11-15T13:52:41.228Z,100.00
2017-11-15T13:53:43.975Z,100.00
2017-11-15T13:54:46.741Z,100.00
2017-11-15T13:55:49.425Z,100.00
2017-11-15T13:56:52.466Z,100.00
2017-11-15T13:57:55.177Z,100.00
2017-11-15T13:58:57.935Z,100.00
2017-11-15T14:00:00.634Z,100.00
2017-11-15T14:01:03.336Z,100.00
2017-11-15T14:02:06.834Z,100.00
2017-11-15T14:03:09.814Z,100.00
2017-11-15T14:04:12.566Z,100.00
2017-11-15T14:05:15.287Z,100.00
2017-11-15T14:06:17.982Z,100.00
2017-11-15T14:07:20.661Z,100.00
2017-11-15T14:08:23.329Z,100.00
2017-11-15T14:09:26.277Z,100.00
2017-11-15T14:10:29.056Z,100.00
2017-11-15T14:11:31.776Z,100.00
2017-11-15T14:12:34.478Z,100.00
2017-11-15T14:13:37.105Z,100.00
2017-11-15T14:14:39.723Z,100.00
2017-11-15T14:15:42.781Z,100.00
2017-11-15T14:16:45.381Z,100.00
2017-11-15T14:17:47.985Z,100.00
2017-11-15T14:18:50.556Z,100.00
2017-11-15T14:19:53.240Z,100.00
2017-11-15T14:20:56.038Z,100.00
2017-11-15T14:21:59.000Z,100.00
2017-11-15T14:23:01.669Z,100.00
2017-11-15T14:24:04.388Z,100.00
2017-11-15T14:25:07.098Z,100.00
2017-11-15T14:26:09.788Z,100.00
2017-11-15T14:27:12.500Z,100.00
2017-11-15T14:28:15.647Z,100.00
2017-11-15T14:29:18.628Z,100.00
2017-11-15T14:30:21.284Z,100.00
2017-11-15T14:31:23.963Z,100.00
2017-11-15T14:32:26.494Z,100.00
2017-11-15T14:33:29.167Z,100.00
2017-11-15T14:34:32.157Z,100.00
2017-11-15T14:35:34.821Z,100.00
2017-11-15T14:36:37.610Z,100.00
2017-11-15T14:37:40.288Z,100.00
2017-11-15T14:38:42.937Z,100.00
2017-11-15T14:39:47.192Z,100.00
2017-11-15T14:40:50.284Z,100.00
2017-11-15T14:41:53.010Z,100.00
2017-11-15T14:42:55.676Z,100.00
2017-11-15T14:43:58.396Z,100.00
2017-11-15T14:45:01.136Z,100.00
2017-11-15T14:46:03.848Z,100.00
2017-11-15T14:47:06.896Z,100.00
2017-11-15T14:48:09.516Z,100.00
2017-11-15T14:49:12.250Z,100.00
2017-11-15T14:50:14.994Z,100.00
2017-11-15T14:51:17.725Z,100.00
2017-11-15T14:52:20.480Z,100.00
2017-11-15T14:53:23.575Z,100.00
2017-11-15T22:02:44.937Z,100.00
2017-11-15T22:03:53.043Z,100.00
2017-11-15T22:04:55.645Z,100.00
2017-11-15T22:05:58.859Z,100.00
2017-11-15T22:07:03.531Z,100.00
2017-11-15T22:08:06.700Z,100.00
2017-11-15T22:09:11.394Z,100.00
2017-11-15T22:10:16.438Z,100.00
2017-11-15T22:11:19.387Z,100.00
2017-11-15T22:12:22.104Z,100.00
2017-11-15T22:13:26.590Z,100.00
2017-11-15T22:14:30.290Z,100.00
2017-11-15T22:15:34.592Z,100.00
2017-11-15T22:16:37.667Z,100.00
2017-11-15T22:17:40.342Z,100.00
2017-11-15T22:18:43.045Z,100.00
2017-11-15T22:19:46.123Z,100.00
2017-11-15T22:20:49.089Z,100.00
2017-11-15T22:21:51.839Z,100.00
2017-11-15T22:22:55.245Z,100.00
2017-11-15T22:23:58.428Z,100.00
2017-11-15T22:25:01.191Z,100.00
2017-11-15T22:26:03.989Z,100.00
2017-11-15T22:27:06.686Z,100.00
2017-11-15T22:28:09.456Z,100.00
2017-11-15T22:29:13.479Z,100.00
2017-11-15T22:30:17.093Z,100.00
2017-11-15T22:31:21.432Z,100.00
2017-11-15T22:32:24.406Z,100.00
2017-11-15T22:33:27.161Z,100.00
2017-11-15T22:34:29.852Z,100.00
2017-11-15T22:35:34.459Z,100.00
2017-11-15T22:36:37.216Z,100.00
2017-11-15T22:37:39.822Z,100.00
2017-11-15T22:38:42.779Z,100.00
2017-11-15T22:39:45.490Z,100.00
2017-11-15T22:40:48.262Z,100.00
2017-11-15T22:41:51.241Z,100.00
2017-11-15T22:42:53.951Z,100.00
2017-11-15T22:43:56.664Z,100.00
2017-11-15T22:44:59.359Z,100.00
2017-11-15T22:46:02.152Z,100.00
2017-11-15T22:47:04.872Z,100.00
2017-11-15T22:48:07.856Z,100.00
2017-11-15T22:49:11.193Z,100.00
2017-11-15T22:50:13.936Z,100.00
2017-11-15T22:51:16.641Z,100.00
2017-11-15T22:52:19.765Z,100.00
